createdAt,value
2019-03-06T00:01:27.818Z,6.87
2019-03-06T00:06:33.477Z,8.23
2019-03-06T00:11:39.661Z,10.70
2019-03-06T00:16:45.264Z,7.30
2019-03-06T00:21:51.364Z,7.97
2019-03-06T00:26:57.030Z,8.07
2019-03-06T00:32:02.667Z,6.93
2019-03-06T00:37:08.445Z,7.80
2019-03-06T00:42:15.691Z,6.60
2019-03-06T00:47:21.477Z,6.70
2019-03-06T00:52:27.083Z,6.43
2019-03-06T00:57:32.822Z,5.47
2019-03-06T01:02:39.596Z,7.60
2019-03-06T01:07:46.452Z,9.23
2019-03-06T01:12:52.184Z,8.40
2019-03-06T01:17:57.926Z,6.57
2019-03-06T01:23:03.539Z,9.97
2019-03-06T01:28:09.200Z,10.87
2019-03-06T01:33:19.235Z,11.37
2019-03-06T01:38:45.138Z,11.17
2019-03-06T01:43:55.335Z,12.17
2019-03-06T01:49:01.151Z,12.80
2019-03-06T01:54:06.938Z,15.73
2019-03-06T01:59:12.770Z,12.93
2019-03-06T02:04:18.584Z,14.00
2019-03-06T02:09:27.297Z,12.63
2019-03-06T02:14:33.412Z,14.13
2019-03-06T02:19:39.278Z,15.07
2019-03-06T02:24:45.456Z,16.00
2019-03-06T02:29:51.322Z,13.73
2019-03-06T02:34:57.336Z,12.97
2019-03-06T02:40:03.277Z,16.97
2019-03-06T02:45:20.416Z,15.63
2019-03-06T02:50:26.127Z,15.10
2019-03-06T02:55:31.923Z,14.10
2019-03-06T03:00:39.319Z,18.27
2019-03-06T03:05:58.535Z,17.60
2019-03-06T03:11:05.844Z,17.27
2019-03-06T03:16:11.615Z,18.70
2019-03-06T03:21:17.694Z,19.10
2019-03-06T03:26:23.564Z,16.80
2019-03-06T03:31:29.636Z,19.07
2019-03-06T03:36:35.451Z,17.67
2019-03-06T03:41:41.691Z,14.30
2019-03-06T03:46:47.389Z,19.53
2019-03-06T03:51:53.500Z,17.93
2019-03-06T03:56:59.301Z,21.10
2019-03-06T04:02:05.502Z,21.73
2019-03-06T04:07:11.311Z,21.40
2019-03-06T04:12:17.487Z,23.73
2019-03-06T04:17:23.197Z,18.53
2019-03-06T04:22:29.369Z,19.63
2019-03-06T04:27:35.121Z,18.90
2019-03-06T04:32:41.063Z,19.73
2019-03-06T04:37:46.751Z,20.97
2019-03-06T04:42:52.967Z,20.77
2019-03-06T04:47:58.665Z,21.37
2019-03-06T04:53:04.733Z,22.43
2019-03-06T04:58:10.462Z,20.83
2019-03-06T05:03:16.319Z,22.07
2019-03-06T05:08:22.038Z,23.63
2019-03-06T05:13:27.715Z,21.37
2019-03-06T05:18:35.042Z,23.10
2019-03-06T05:23:40.788Z,23.03
2019-03-06T05:28:46.547Z,21.93
2019-03-06T05:33:52.339Z,22.63
2019-03-06T05:39:11.542Z,20.17
2019-03-06T05:44:17.382Z,20.97
2019-03-06T05:49:24.273Z,22.67
2019-03-06T05:54:31.223Z,21.07
2019-03-06T05:59:37.183Z,24.40
2019-03-06T06:04:43.961Z,24.33
2019-03-06T06:09:49.848Z,20.97
2019-03-06T06:14:55.614Z,24.10
2019-03-06T06:20:01.401Z,22.60
2019-03-06T06:25:07.311Z,23.47
2019-03-06T06:30:15.417Z,24.63
2019-03-06T06:35:21.255Z,18.87
2019-03-06T06:40:27.039Z,22.30
2019-03-06T06:45:32.840Z,23.60
2019-03-06T06:50:44.652Z,23.80
2019-03-06T06:56:14.290Z,26.13
2019-03-06T07:01:27.385Z,27.90
2019-03-06T07:06:50.593Z,20.87
2019-03-06T07:12:00.552Z,22.53
2019-03-06T07:17:25.260Z,21.30
2019-03-06T07:22:38.665Z,22.27
2019-03-06T07:27:49.144Z,22.43
2019-03-06T07:33:05.458Z,21.17
2019-03-06T07:38:11.987Z,20.27
2019-03-06T07:43:19.670Z,22.10
2019-03-06T07:48:26.982Z,22.93
2019-03-06T07:53:51.845Z,23.93
2019-03-06T07:58:59.885Z,23.77
2019-03-06T08:04:13.984Z,23.20
2019-03-06T08:09:20.871Z,21.03
2019-03-06T08:14:46.557Z,24.20
2019-03-06T08:19:56.770Z,23.50
2019-03-06T08:25:10.118Z,25.33
2019-03-06T08:30:16.245Z,25.27
2019-03-06T08:35:21.918Z,19.93
2019-03-06T08:40:27.627Z,25.87
2019-03-06T08:45:46.924Z,24.70
2019-03-06T08:50:54.283Z,22.30
2019-03-06T08:56:04.201Z,21.33
2019-03-06T09:01:42.435Z,20.67
2019-03-06T09:07:06.231Z,20.53
2019-03-06T09:12:25.496Z,19.83
2019-03-06T09:17:32.917Z,22.17
2019-03-06T09:22:43.298Z,20.67
2019-03-06T09:27:53.896Z,20.43
2019-03-06T09:33:07.471Z,24.87
2019-03-06T09:38:17.548Z,24.63
2019-03-06T09:43:39.727Z,20.17
2019-03-06T09:48:52.802Z,23.13
2019-03-06T09:54:03.130Z,20.97
2019-03-06T09:59:10.491Z,19.53
2019-03-06T10:04:36.300Z,21.00
2019-03-06T10:09:46.719Z,22.47
2019-03-06T10:15:10.264Z,20.10
2019-03-06T10:20:25.047Z,16.80
2019-03-06T10:30:35.611Z,17.87
2019-03-06T10:35:41.549Z,16.93
2019-03-06T10:40:47.457Z,14.67
2019-03-06T10:45:53.460Z,22.33
2019-03-06T10:50:59.355Z,19.70
2019-03-06T10:56:05.708Z,19.60
2019-03-06T11:01:11.495Z,20.03
2019-03-06T11:06:17.493Z,19.13
2019-03-06T11:11:23.287Z,18.27
2019-03-06T11:16:29.198Z,15.73
2019-03-06T11:21:36.790Z,17.37
2019-03-06T11:26:42.713Z,19.17
2019-03-06T11:31:49.936Z,16.47
2019-03-06T11:36:55.663Z,17.97
2019-03-06T11:42:02.715Z,13.87
2019-03-06T11:47:08.435Z,18.20
2019-03-06T11:52:14.472Z,16.03
2019-03-06T11:57:20.234Z,14.43
2019-03-06T12:02:26.018Z,14.70
2019-03-06T12:07:31.727Z,14.00
2019-03-06T12:12:37.559Z,12.73
2019-03-06T12:17:43.330Z,12.47
2019-03-06T12:22:49.157Z,11.47
2019-03-06T12:27:55.125Z,15.60
2019-03-06T12:33:00.877Z,14.00
2019-03-06T12:38:06.562Z,16.67
2019-03-06T12:43:12.351Z,13.77
2019-03-06T12:48:18.612Z,11.80
2019-03-06T12:53:24.306Z,11.77
2019-03-06T12:58:30.073Z,10.53
2019-03-06T13:03:35.755Z,12.43
2019-03-06T13:08:49.988Z,7.80
2019-03-06T13:13:49.582Z,9.40
2019-03-06T13:18:55.372Z,12.77
2019-03-06T13:24:01.116Z,10.30
2019-03-06T13:29:08.232Z,9.93
2019-03-06T13:34:18.731Z,11.40
2019-03-06T13:39:24.380Z,8.37
2019-03-06T13:44:30.404Z,12.20
2019-03-06T13:49:36.358Z,8.10
2019-03-06T13:54:42.067Z,10.00
2019-03-06T13:59:47.749Z,9.07
2019-03-06T14:04:54.629Z,10.33
2019-03-06T14:10:00.415Z,9.43
2019-03-06T14:15:08.479Z,7.67
2019-03-06T14:20:22.613Z,9.00
2019-03-06T14:25:28.760Z,8.10
2019-03-06T14:30:36.943Z,6.07
2019-03-06T14:35:42.746Z,10.13
2019-03-06T14:40:49.077Z,10.47
2019-03-06T14:45:55.949Z,9.40
2019-03-06T14:51:02.051Z,6.50
2019-03-06T14:56:07.896Z,8.80
2019-03-06T15:01:13.648Z,10.47
2019-03-06T15:06:21.224Z,10.40
2019-03-06T15:11:33.073Z,7.30
2019-03-06T15:16:34.455Z,7.77
2019-03-06T15:21:40.209Z,9.50
2019-03-06T15:26:45.882Z,9.00
2019-03-06T15:31:51.705Z,6.63
2019-03-06T15:36:58.603Z,6.23
2019-03-06T15:42:05.096Z,6.90
2019-03-06T15:47:11.051Z,9.23
2019-03-06T15:52:16.773Z,5.90
2019-03-06T15:57:22.784Z,5.50
2019-03-06T16:02:29.402Z,5.40
2019-03-06T16:07:35.160Z,5.13
2019-03-06T16:12:40.934Z,6.30
2019-03-06T16:17:46.762Z,4.97
2019-03-06T16:22:52.615Z,6.23
2019-03-06T16:27:58.493Z,6.13
2019-03-06T16:33:04.302Z,5.23
2019-03-06T16:38:10.126Z,5.57
2019-03-06T16:43:15.882Z,6.57
2019-03-06T16:48:21.681Z,6.17
2019-03-06T16:53:27.556Z,4.50
2019-03-06T16:58:33.295Z,6.57
2019-03-06T17:03:39.288Z,8.07
2019-03-06T17:08:45.158Z,8.83
2019-03-06T17:13:50.920Z,7.77
2019-03-06T17:18:57.761Z,6.37
2019-03-06T17:24:03.659Z,7.17
2019-03-06T17:29:13.066Z,7.50
2019-03-06T17:34:18.813Z,6.03
2019-03-06T17:39:24.684Z,7.07
2019-03-06T17:44:30.400Z,6.77
2019-03-06T17:49:36.142Z,5.37
2019-03-06T17:54:41.927Z,6.30
2019-03-06T17:59:47.877Z,6.57
2019-03-06T18:04:53.636Z,6.93
2019-03-06T18:09:59.454Z,6.53
2019-03-06T18:15:07.723Z,6.53
2019-03-06T18:20:17.980Z,8.27
2019-03-06T18:25:25.003Z,6.43
2019-03-06T18:30:30.679Z,6.87
2019-03-06T18:35:36.430Z,6.87
2019-03-06T18:40:42.319Z,7.53
2019-03-06T18:45:48.142Z,8.07
2019-03-06T18:50:53.845Z,6.87
2019-03-06T18:55:59.721Z,9.53
2019-03-06T19:01:05.481Z,7.40
2019-03-06T19:06:11.265Z,6.10
2019-03-06T19:11:17.384Z,8.00
2019-03-06T19:16:23.258Z,7.43
2019-03-06T19:21:29.047Z,6.13
2019-03-06T19:26:34.805Z,6.57
2019-03-06T19:31:40.612Z,7.93
2019-03-06T19:36:46.353Z,10.60
2019-03-06T19:41:53.542Z,7.20
2019-03-06T19:46:59.289Z,8.07
2019-03-06T19:52:05.059Z,9.30
2019-03-06T19:57:10.816Z,11.07
2019-03-06T20:02:16.939Z,11.77
2019-03-06T20:07:22.732Z,11.67
2019-03-06T20:12:28.750Z,10.87
2019-03-06T20:17:34.688Z,12.83
2019-03-06T20:22:41.007Z,12.33
2019-03-06T20:27:46.835Z,12.37
2019-03-06T20:32:52.951Z,13.60
2019-03-06T20:37:58.843Z,13.43
2019-03-06T20:43:04.820Z,11.90
2019-03-06T20:48:10.628Z,13.87
2019-03-06T20:53:16.612Z,14.23
2019-03-06T20:58:22.461Z,11.93
2019-03-06T21:03:28.283Z,11.57
2019-03-06T21:08:34.124Z,14.87
2019-03-06T21:13:40.016Z,13.73
2019-03-06T21:18:45.916Z,13.43
2019-03-06T21:23:51.686Z,13.00
2019-03-06T21:28:57.479Z,13.17
2019-03-06T21:34:03.439Z,12.10
2019-03-06T21:39:12.207Z,10.63
2019-03-06T21:44:18.264Z,11.90
2019-03-06T21:49:24.054Z,12.43
2019-03-06T21:54:29.938Z,13.60
2019-03-06T21:59:35.691Z,12.80
2019-03-06T22:04:41.608Z,13.23
2019-03-06T22:09:47.470Z,11.87
2019-03-06T22:14:53.207Z,15.40
2019-03-06T22:19:58.886Z,11.30
2019-03-06T22:25:06.137Z,11.13
2019-03-06T22:30:24.788Z,10.10
2019-03-06T22:35:30.616Z,9.47
2019-03-06T22:40:36.530Z,11.53
2019-03-06T22:45:42.294Z,11.23
2019-03-06T22:50:48.062Z,10.93
2019-03-06T22:55:53.831Z,10.83
2019-03-06T23:01:02.515Z,10.80
2019-03-06T23:06:10.656Z,11.20
2019-03-06T23:11:16.408Z,10.37
2019-03-06T23:16:22.192Z,11.83
2019-03-06T23:21:27.912Z,11.77
2019-03-06T23:26:42.480Z,10.13
2019-03-06T23:31:41.112Z,11.97
2019-03-06T23:36:46.881Z,10.87
2019-03-06T23:41:52.604Z,13.37
2019-03-06T23:46:58.363Z,9.63
2019-03-06T23:52:05.608Z,9.77
2019-03-06T23:57:11.546Z,10.00
